createdAt,value
2023-02-22T00:01:35.607Z,4.63
2023-02-22T00:06:28.006Z,4.57
2023-02-22T00:11:20.704Z,6.10
2023-02-22T00:16:19.528Z,11.93
2023-02-22T00:21:13.490Z,13.67
2023-02-22T00:26:09.900Z,7.00
2023-02-22T00:31:01.893Z,6.43
2023-02-22T00:35:53.807Z,8.07
2023-02-22T00:40:45.946Z,5.70
2023-02-22T00:45:38.199Z,6.57
2023-02-22T00:50:31.371Z,8.07
2023-02-22T00:55:33.688Z,7.77
2023-02-22T01:00:31.616Z,6.40
2023-02-22T01:05:27.218Z,6.23
2023-02-22T01:10:21.574Z,6.43
2023-02-22T01:15:16.302Z,5.87
2023-02-22T01:20:12.662Z,4.13
2023-02-22T01:25:08.885Z,5.33
2023-02-22T01:30:01.128Z,6.60
2023-02-22T01:34:56.478Z,5.40
2023-02-22T01:39:48.702Z,4.90
2023-02-22T01:44:41.596Z,5.23
2023-02-22T01:49:37.971Z,5.53
2023-02-22T01:54:35.241Z,3.93
2023-02-22T01:59:33.153Z,5.00
2023-02-22T02:04:27.114Z,5.40
2023-02-22T02:10:25.277Z,5.83
2023-02-22T02:15:22.717Z,4.60
2023-02-22T02:20:27.866Z,5.67
2023-02-22T02:25:20.608Z,5.30
2023-02-22T02:30:42.530Z,4.77
2023-02-22T02:35:59.282Z,6.93
2023-02-22T02:41:11.386Z,5.33
2023-02-22T02:46:06.131Z,5.23
2023-02-22T02:51:01.162Z,7.07
2023-02-22T02:55:53.953Z,6.70
2023-02-22T03:00:51.391Z,8.10
2023-02-22T03:05:49.532Z,4.97
2023-02-22T03:11:15.262Z,5.23
2023-02-22T03:16:34.528Z,5.03
2023-02-22T03:21:52.693Z,5.93
2023-02-22T03:27:12.169Z,6.40
2023-02-22T03:32:14.610Z,6.67
2023-02-22T03:37:15.939Z,6.03
2023-02-22T03:42:22.384Z,5.77
2023-02-22T03:47:28.362Z,7.33
2023-02-22T03:52:23.486Z,7.30
2023-02-22T03:57:28.426Z,7.40
2023-02-22T04:02:28.309Z,6.80
2023-02-22T04:07:20.499Z,7.20
2023-02-22T04:12:13.877Z,8.43
2023-02-22T04:17:23.114Z,6.93
2023-02-22T04:22:15.439Z,7.17
2023-02-22T04:27:07.547Z,7.37
2023-02-22T04:32:02.764Z,7.73
2023-02-22T04:36:55.448Z,6.73
2023-02-22T04:41:47.664Z,7.80
2023-02-22T04:46:39.976Z,7.90
2023-02-22T04:51:32.242Z,8.63
2023-02-22T04:56:35.995Z,10.70
2023-02-22T05:01:33.613Z,10.00
2023-02-22T05:06:26.251Z,8.60
2023-02-22T05:11:18.492Z,12.90
2023-02-22T05:16:10.797Z,10.83
2023-02-22T05:21:02.836Z,9.10
2023-02-22T05:25:54.756Z,10.27
2023-02-22T05:30:46.919Z,7.03
2023-02-22T05:35:39.034Z,8.97
2023-02-22T05:40:32.080Z,8.60
2023-02-22T05:45:26.714Z,9.50
2023-02-22T05:50:20.159Z,9.57
2023-02-22T05:55:16.570Z,9.30
2023-02-22T06:00:09.728Z,8.43
2023-02-22T06:05:08.385Z,12.40
2023-02-22T06:10:00.547Z,11.60
2023-02-22T06:14:52.600Z,11.47
2023-02-22T06:19:44.625Z,8.27
2023-02-22T06:24:39.293Z,12.37
2023-02-22T06:29:31.493Z,11.90
2023-02-22T06:34:23.530Z,10.87
2023-02-22T06:39:16.683Z,11.13
2023-02-22T06:44:10.625Z,10.50
2023-02-22T06:49:03.900Z,11.77
2023-02-22T06:53:55.996Z,14.67
2023-02-22T06:58:49.475Z,11.93
2023-02-22T07:03:42.386Z,12.83
2023-02-22T07:08:34.550Z,12.30
2023-02-22T07:13:26.572Z,17.13
2023-02-22T07:18:18.689Z,11.63
2023-02-22T07:23:13.849Z,12.07
2023-02-22T07:28:05.848Z,18.53
2023-02-22T07:32:59.921Z,32.93
2023-02-22T07:37:54.658Z,26.63
2023-02-22T07:43:26.732Z,26.77
2023-02-22T07:48:21.236Z,18.10
2023-02-22T07:53:20.955Z,19.37
2023-02-22T07:58:15.166Z,15.93
2023-02-22T08:03:13.439Z,14.90
2023-02-22T08:08:06.799Z,17.47
2023-02-22T08:12:59.365Z,12.93
2023-02-22T08:17:53.403Z,14.13
2023-02-22T08:22:46.025Z,15.27
2023-02-22T08:27:38.085Z,12.67
2023-02-22T08:32:31.966Z,16.93
2023-02-22T08:37:24.104Z,11.67
2023-02-22T08:42:16.253Z,15.50
2023-02-22T08:47:08.356Z,45.07
2023-02-22T08:52:00.346Z,13.40
2023-02-22T08:56:52.315Z,15.93
2023-02-22T09:01:46.818Z,13.93
2023-02-22T09:06:41.879Z,12.17
2023-02-22T09:11:33.944Z,12.03
2023-02-22T09:16:25.947Z,14.70
2023-02-22T09:21:18.326Z,11.83
2023-02-22T09:26:10.507Z,14.30
2023-02-22T09:31:02.592Z,11.27
2023-02-22T09:35:55.808Z,14.60
2023-02-22T09:40:54.403Z,16.20
2023-02-22T09:45:59.100Z,14.03
2023-02-22T09:50:54.934Z,13.57
2023-02-22T09:55:52.827Z,11.40
2023-02-22T10:00:48.648Z,13.80
2023-02-22T10:05:44.318Z,14.87
2023-02-22T10:10:48.833Z,13.60
2023-02-22T10:16:11.346Z,10.27
2023-02-22T10:21:23.528Z,10.97
2023-02-22T10:26:20.533Z,10.67
2023-02-22T10:31:23.442Z,9.63
2023-02-22T10:36:20.139Z,12.00
2023-02-22T10:41:12.157Z,11.67
2023-02-22T10:46:06.955Z,12.67
2023-02-22T10:51:02.260Z,13.40
2023-02-22T10:56:21.646Z,11.00
2023-02-22T11:01:26.623Z,7.33
2023-02-22T11:06:21.683Z,8.57
2023-02-22T11:11:25.665Z,10.43
2023-02-22T11:16:24.253Z,9.63
2023-02-22T11:21:22.851Z,9.07
2023-02-22T11:26:20.450Z,8.30
2023-02-22T11:31:28.362Z,7.20
2023-02-22T11:36:40.474Z,7.30
2023-02-22T11:41:37.227Z,12.73
2023-02-22T11:46:34.909Z,3.40
2023-02-22T11:52:07.479Z,4.90
2023-02-22T11:57:22.223Z,5.57
2023-02-22T12:02:37.401Z,4.83
2023-02-22T12:07:48.680Z,7.93
2023-02-22T12:12:40.688Z,5.23
2023-02-22T12:17:43.636Z,4.30
2023-02-22T12:22:46.263Z,4.40
2023-02-22T12:27:52.669Z,4.97
2023-02-22T12:32:52.794Z,4.13
2023-02-22T12:38:10.100Z,4.93
2023-02-22T12:43:29.985Z,4.57
2023-02-22T12:48:43.754Z,5.57
2023-02-22T12:53:40.809Z,4.60
2023-02-22T12:58:39.673Z,4.23
2023-02-22T13:03:36.422Z,4.33
2023-02-22T13:08:36.857Z,3.97
2023-02-22T13:13:38.025Z,3.63
2023-02-22T13:18:48.046Z,4.47
2023-02-22T13:23:52.739Z,3.57
2023-02-22T13:29:22.346Z,3.33
2023-02-22T13:34:30.730Z,3.83
2023-02-22T13:39:54.957Z,3.73
2023-02-22T13:45:24.137Z,3.17
2023-02-22T13:50:49.304Z,2.70
2023-02-22T13:55:44.204Z,3.43
2023-02-22T14:00:58.637Z,3.10
2023-02-22T14:05:53.120Z,3.27
2023-02-22T14:10:59.177Z,3.47
2023-02-22T14:16:00.602Z,4.00
2023-02-22T14:21:11.214Z,2.80
2023-02-22T14:26:12.342Z,2.70
2023-02-22T14:31:25.784Z,3.20
2023-02-22T14:36:39.669Z,2.70
2023-02-22T14:41:33.216Z,3.77
2023-02-22T14:46:31.113Z,3.57
2023-02-22T14:51:29.440Z,2.90
2023-02-22T14:56:36.363Z,3.90
2023-02-22T15:01:48.823Z,3.43
2023-02-22T15:06:45.412Z,8.87
2023-02-22T15:11:37.636Z,9.40
2023-02-22T15:16:33.685Z,9.80
2023-02-22T15:21:28.184Z,9.80
2023-02-22T15:26:37.539Z,9.63
2023-02-22T15:31:38.858Z,10.37
2023-02-22T15:36:31.230Z,10.53
2023-02-22T15:41:28.383Z,11.53
2023-02-22T15:46:20.472Z,11.20
2023-02-22T15:51:15.388Z,9.43
2023-02-22T15:56:13.752Z,10.17
2023-02-22T16:01:09.180Z,11.40
2023-02-22T16:06:01.628Z,10.43
2023-02-22T16:11:02.713Z,10.37
2023-02-22T16:16:01.949Z,8.37
2023-02-22T16:21:02.683Z,10.43
2023-02-22T16:26:08.246Z,10.13
2023-02-22T16:31:00.757Z,9.07
2023-02-22T16:35:52.936Z,18.00
2023-02-22T16:40:52.467Z,16.23
2023-02-22T16:45:44.629Z,10.60
2023-02-22T16:50:36.571Z,21.03
2023-02-22T16:55:28.819Z,12.37
2023-02-22T17:00:31.681Z,11.70
2023-02-22T17:05:23.846Z,12.13
2023-02-22T17:10:19.739Z,11.43
2023-02-22T17:15:27.520Z,12.57
2023-02-22T17:20:30.052Z,12.67
2023-02-22T17:25:25.789Z,9.80
2023-02-22T17:30:23.830Z,11.17
2023-02-22T17:35:19.721Z,12.20
2023-02-22T17:40:14.802Z,13.23
2023-02-22T17:45:08.966Z,11.63
2023-02-22T17:50:00.933Z,20.77
2023-02-22T17:54:52.964Z,15.83
2023-02-22T17:59:45.016Z,16.33
2023-02-22T18:04:38.199Z,15.70
2023-02-22T18:09:30.209Z,10.33
2023-02-22T18:14:23.731Z,15.23
2023-02-22T18:19:20.431Z,10.30
2023-02-22T18:24:14.105Z,13.17
2023-02-22T18:29:07.122Z,14.90
2023-02-22T18:33:59.275Z,11.43
2023-02-22T18:38:53.735Z,11.63
2023-02-22T18:43:50.901Z,11.30
2023-02-22T18:48:43.130Z,11.83
2023-02-22T18:53:36.861Z,13.45
2023-02-22T18:58:29.004Z,12.73
2023-02-22T19:03:20.907Z,12.93
2023-02-22T19:08:12.834Z,11.33
2023-02-22T19:13:10.702Z,11.67
2023-02-22T19:18:02.787Z,11.13
2023-02-22T19:22:54.813Z,11.57
2023-02-22T19:27:46.964Z,11.80
2023-02-22T19:32:44.829Z,13.47
2023-02-22T19:37:36.846Z,13.33
2023-02-22T19:42:29.876Z,9.47
2023-02-22T19:47:22.659Z,13.07
2023-02-22T19:52:14.825Z,12.00
2023-02-22T19:57:06.833Z,12.93
2023-02-22T20:01:58.946Z,13.60
2023-02-22T20:06:54.612Z,16.57
2023-02-22T20:11:47.933Z,14.57
2023-02-22T20:16:40.159Z,16.40
2023-02-22T20:21:38.855Z,16.90
2023-02-22T20:26:33.016Z,15.10
2023-02-22T20:31:25.278Z,12.40
2023-02-22T20:36:19.273Z,11.97
2023-02-22T20:41:19.974Z,15.30
2023-02-22T20:46:12.146Z,16.70
2023-02-22T20:51:13.272Z,14.20
2023-02-22T20:56:06.815Z,13.97
2023-02-22T21:01:05.020Z,15.67
2023-02-22T21:05:57.059Z,14.00
2023-02-22T21:10:49.090Z,18.10
2023-02-22T21:15:43.919Z,14.17
2023-02-22T21:20:39.672Z,15.90
2023-02-22T21:25:32.071Z,16.23
2023-02-22T21:30:24.701Z,18.83
2023-02-22T21:35:16.801Z,14.33
2023-02-22T21:40:12.616Z,18.00
2023-02-22T21:45:04.956Z,20.10
2023-02-22T21:49:57.719Z,18.50
2023-02-22T21:54:49.602Z,28.83
2023-02-22T21:59:41.817Z,22.07
2023-02-22T22:04:34.979Z,23.93
2023-02-22T22:09:32.904Z,17.07
2023-02-22T22:14:26.420Z,18.53
2023-02-22T22:19:18.636Z,20.77
2023-02-22T22:24:11.238Z,19.10
2023-02-22T22:29:04.610Z,18.70
2023-02-22T22:33:57.453Z,20.87
2023-02-22T22:38:49.809Z,22.13
2023-02-22T22:43:46.111Z,17.97
2023-02-22T22:48:39.122Z,20.17
2023-02-22T22:53:31.960Z,21.10
2023-02-22T22:58:24.106Z,18.90
2023-02-22T23:03:17.457Z,18.57
2023-02-22T23:08:13.018Z,21.40
2023-02-22T23:13:10.437Z,16.70
2023-02-22T23:18:03.861Z,21.27
2023-02-22T23:22:57.904Z,16.93
2023-02-22T23:27:50.684Z,15.60
2023-02-22T23:32:43.103Z,18.83
2023-02-22T23:37:35.541Z,18.23
2023-02-22T23:42:27.578Z,16.97
2023-02-22T23:47:19.577Z,15.87
2023-02-22T23:52:13.461Z,16.87
2023-02-22T23:57:06.363Z,15.27
